Time;durP1;ratioP1;P1;durP2;ratioP2;P2;SDS_P1;SDS_P2;PMS_P1;PMS_P2;Temp;Humidity;BMP_temperature;BMP_pressure;BME280_temperature;BME280_humidity;BME280_pressure;Samples;Min_cycle;Max_cycle;Signal;HPM_P1;HPM_P2
2021/05/08 00:01:06;;;;;;;4.13;3.20;;;;;;;;;;5033594;28;20206;-61
2021/05/08 00:03:33;;;;;;;3.30;3.00;;;;;;;;;;5033496;28;20205;-61
2021/05/08 00:06:01;;;;;;;3.10;2.90;;;;;;;;;;5033405;28;20202;-60
2021/05/08 00:08:27;;;;;;;4.97;3.38;;;;;;;;;;5033269;28;20222;-61
2021/05/08 00:10:54;;;;;;;5.15;3.20;;;;;;;;;;5033961;28;20199;-60
2021/05/08 00:13:22;;;;;;;5.15;3.28;;;;;;;;;;5034168;28;20206;-60
2021/05/08 00:15:48;;;;;;;3.90;3.50;;;;;;;;;;5033899;28;20280;-59
2021/05/08 00:18:15;;;;;;;4.38;3.60;;;;;;;;;;5033968;28;20205;-60
2021/05/08 00:20:42;;;;;;;4.70;3.55;;;;;;;;;;5033284;28;20205;-61
2021/05/08 00:23:09;;;;;;;6.20;3.42;;;;;;;;;;5034583;28;20217;-61
2021/05/08 00:25:35;;;;;;;4.70;3.63;;;;;;;;;;5037068;28;20234;-61
2021/05/08 00:28:02;;;;;;;4.15;3.50;;;;;;;;;;5037250;28;20222;-61
2021/05/08 00:30:30;;;;;;;4.85;3.88;;;;;;;;;;5037397;28;20197;-61
2021/05/08 00:32:57;;;;;;;6.10;3.50;;;;;;;;;;5037272;28;20198;-61
2021/05/08 00:35:23;;;;;;;4.88;4.30;;;;;;;;;;5037279;28;20226;-61
2021/05/08 00:37:50;;;;;;;7.20;3.47;;;;;;;;;;5036993;28;20666;-61
2021/05/08 00:40:17;;;;;;;4.07;3.67;;;;;;;;;;5036868;28;20740;-61
2021/05/08 00:42:44;;;;;;;4.63;4.22;;;;;;;;;;5036752;28;20652;-61
2021/05/08 00:45:11;;;;;;;6.25;4.57;;;;;;;;;;5036927;28;20592;-61
2021/05/08 00:47:41;;;;;;;5.47;3.75;;;;;;;;;;5036867;28;20206;-61
2021/05/08 00:50:09;;;;;;;4.30;3.90;;;;;;;;;;5036606;28;20780;-61
2021/05/08 00:52:36;;;;;;;5.22;4.50;;;;;;;;;;5036544;28;20206;-61
2021/05/08 00:55:03;;;;;;;4.80;4.30;;;;;;;;;;5036533;28;20222;-61
2021/05/08 00:57:30;;;;;;;4.85;4.35;;;;;;;;;;5036467;28;20206;-61
2021/05/08 00:59:57;;;;;;;5.50;4.93;;;;;;;;;;5036623;28;20199;-60
2021/05/08 01:02:24;;;;;;;6.85;5.00;;;;;;;;;;5036628;28;20210;-60
2021/05/08 01:04:51;;;;;;;6.20;4.60;;;;;;;;;;5036532;28;20226;-61
2021/05/08 01:07:18;;;;;;;5.53;4.03;;;;;;;;;;5037126;28;20252;-60
2021/05/08 01:09:45;;;;;;;5.45;4.80;;;;;;;;;;5036113;28;20693;-61
2021/05/08 01:12:12;;;;;;;5.22;4.45;;;;;;;;;;5036207;28;20202;-60
2021/05/08 01:14:38;;;;;;;5.60;4.95;;;;;;;;;;5036364;28;20226;-61
2021/05/08 01:17:05;;;;;;;5.45;4.50;;;;;;;;;;5036344;28;20256;-61
2021/05/08 01:19:33;;;;;;;6.35;4.43;;;;;;;;;;5036305;28;20201;-60
2021/05/08 01:22:01;;;;;;;6.25;4.57;;;;;;;;;;5036248;28;20206;-61
2021/05/08 01:24:28;;;;;;;6.35;5.47;;;;;;;;;;5035967;28;20607;-61
2021/05/08 01:26:55;;;;;;;4.95;4.55;;;;;;;;;;5036193;28;20206;-60
2021/05/08 01:29:21;;;;;;;4.68;4.28;;;;;;;;;;5036125;28;20268;-61
2021/05/08 01:31:48;;;;;;;6.35;5.10;;;;;;;;;;5036072;28;20207;-61
2021/05/08 01:34:15;;;;;;;5.38;4.88;;;;;;;;;;5035699;28;20225;-61
2021/05/08 01:36:42;;;;;;;5.78;5.28;;;;;;;;;;5035599;28;20616;-61
2021/05/08 01:39:09;;;;;;;5.28;4.45;;;;;;;;;;5035658;28;20678;-61
2021/05/08 01:41:36;;;;;;;6.05;4.80;;;;;;;;;;5035983;28;20206;-61
2021/05/08 01:44:04;;;;;;;4.10;3.70;;;;;;;;;;5037124;28;20305;-60
2021/05/08 01:46:31;;;;;;;5.88;5.28;;;;;;;;;;5038031;28;20572;-61
2021/05/08 01:48:58;;;;;;;9.82;6.25;;;;;;;;;;5036126;28;20215;-61
2021/05/08 01:51:24;;;;;;;7.85;5.13;;;;;;;;;;5035810;28;20202;-61
2021/05/08 01:53:51;;;;;;;6.00;5.40;;;;;;;;;;5035653;28;20211;-61
2021/05/08 01:56:19;;;;;;;6.30;5.72;;;;;;;;;;5035400;28;20206;-61
2021/05/08 01:58:45;;;;;;;7.00;4.90;;;;;;;;;;5035555;28;20203;-61
2021/05/08 02:01:12;;;;;;;6.22;4.65;;;;;;;;;;5035247;28;20610;-61
2021/05/08 02:03:39;;;;;;;5.40;4.90;;;;;;;;;;5035103;28;20569;-61
2021/05/08 02:06:06;;;;;;;5.80;5.30;;;;;;;;;;5036037;28;20726;-61
2021/05/08 02:08:33;;;;;;;7.25;5.25;;;;;;;;;;5035224;28;20593;-61
2021/05/08 02:10:59;;;;;;;7.22;5.15;;;;;;;;;;5035337;28;20206;-61
2021/05/08 02:13:27;;;;;;;7.35;5.25;;;;;;;;;;5035629;28;20205;-61
2021/05/08 02:15:54;;;;;;;6.55;5.90;;;;;;;;;;5035140;28;20722;-61
2021/05/08 02:18:20;;;;;;;6.43;5.82;;;;;;;;;;5035441;28;20553;-61
2021/05/08 02:20:47;;;;;;;6.15;5.55;;;;;;;;;;5035078;28;20206;-61
2021/05/08 02:23:14;;;;;;;5.63;5.10;;;;;;;;;;5035313;28;20580;-61
2021/05/08 02:25:41;;;;;;;6.88;5.50;;;;;;;;;;5034834;28;20234;-61
2021/05/08 02:28:09;;;;;;;5.60;5.03;;;;;;;;;;5034909;28;20385;-61
2021/05/08 02:30:38;;;;;;;6.25;5.65;;;;;;;;;;5034985;28;20256;-61
2021/05/08 02:33:05;;;;;;;6.20;5.28;;;;;;;;;;5034610;28;20666;-61
2021/05/08 02:35:32;;;;;;;7.35;6.05;;;;;;;;;;5035385;28;20261;-61
2021/05/08 02:37:59;;;;;;;6.05;4.55;;;;;;;;;;5034867;28;20206;-61
2021/05/08 02:40:27;;;;;;;9.00;5.97;;;;;;;;;;5034798;28;20260;-60
2021/05/08 02:42:54;;;;;;;8.57;6.43;;;;;;;;;;5034910;28;20213;-61
2021/05/08 02:45:21;;;;;;;6.20;5.60;;;;;;;;;;5034406;28;20230;-60
2021/05/08 02:47:50;;;;;;;7.28;5.50;;;;;;;;;;5033478;28;20574;-60
2021/05/08 02:50:17;;;;;;;5.40;4.90;;;;;;;;;;5034587;28;20202;-61
2021/05/08 02:52:44;;;;;;;6.30;5.47;;;;;;;;;;5034465;28;20692;-61
2021/05/08 02:55:12;;;;;;;6.20;4.90;;;;;;;;;;5034637;28;20276;-61
2021/05/08 02:57:39;;;;;;;7.28;5.10;;;;;;;;;;5034660;28;20210;-61
2021/05/08 03:00:07;;;;;;;6.15;5.55;;;;;;;;;;5034251;28;20688;-61
2021/05/08 03:02:34;;;;;;;6.78;5.38;;;;;;;;;;5034584;28;20203;-62
2021/05/08 03:05:01;;;;;;;5.80;5.30;;;;;;;;;;5034446;28;20227;-61
2021/05/08 03:07:28;;;;;;;5.70;4.80;;;;;;;;;;5034457;28;20202;-60
2021/05/08 03:09:55;;;;;;;7.85;5.80;;;;;;;;;;5034089;28;20226;-61
2021/05/08 03:12:21;;;;;;;5.80;5.30;;;;;;;;;;5033998;28;20213;-61
2021/05/08 03:14:48;;;;;;;10.65;6.18;;;;;;;;;;5035335;28;20230;-61
2021/05/08 03:17:15;;;;;;;7.43;5.63;;;;;;;;;;5035380;28;20233;-61
2021/05/08 03:19:42;;;;;;;6.65;5.95;;;;;;;;;;5034317;28;20210;-60
2021/05/08 03:22:09;;;;;;;6.60;5.93;;;;;;;;;;5033822;28;20260;-60
2021/05/08 03:24:36;;;;;;;7.15;5.18;;;;;;;;;;5034990;28;20238;-60
2021/05/08 03:27:03;;;;;;;6.90;5.53;;;;;;;;;;5033591;28;20736;-61
2021/05/08 03:29:30;;;;;;;8.07;5.60;;;;;;;;;;5033445;28;20721;-61
2021/05/08 03:31:56;;;;;;;9.45;5.70;;;;;;;;;;5033598;28;20205;-61
2021/05/08 03:34:24;;;;;;;6.28;5.68;;;;;;;;;;5033783;28;20595;-61
2021/05/08 03:36:51;;;;;;;7.47;6.43;;;;;;;;;;5033490;28;20203;-61
2021/05/08 03:39:18;;;;;;;6.68;5.65;;;;;;;;;;5033685;28;20198;-61
2021/05/08 03:41:45;;;;;;;5.93;5.30;;;;;;;;;;5033723;28;20206;-61
2021/05/08 03:44:12;;;;;;;7.90;5.45;;;;;;;;;;5033558;28;20245;-59
2021/05/08 03:46:39;;;;;;;7.82;5.75;;;;;;;;;;5033506;28;20217;-61
2021/05/08 03:49:06;;;;;;;10.77;6.13;;;;;;;;;;5033264;28;20245;-61
2021/05/08 03:51:32;;;;;;;7.40;6.50;;;;;;;;;;5033265;28;20575;-60
2021/05/08 03:53:59;;;;;;;8.02;5.60;;;;;;;;;;5033176;28;20714;-61
2021/05/08 03:56:27;;;;;;;7.03;6.10;;;;;;;;;;5033640;28;20202;-61
2021/05/08 03:58:54;;;;;;;7.85;5.90;;;;;;;;;;5033136;28;20202;-61
2021/05/08 04:01:20;;;;;;;6.60;5.95;;;;;;;;;;5033508;28;20205;-60
2021/05/08 04:03:47;;;;;;;12.27;6.43;;;;;;;;;;5034093;28;20209;-60
2021/05/08 04:08:04;;;;;;;7.30;6.60;;;;;;;;;;5115740;27;20589;-61
2021/05/08 04:10:31;;;;;;;7.00;6.35;;;;;;;;;;5114898;28;20196;-61
2021/05/08 04:12:58;;;;;;;7.00;6.30;;;;;;;;;;5112060;28;20195;-60
2021/05/08 04:15:24;;;;;;;8.35;7.55;;;;;;;;;;5111868;28;20619;-61
2021/05/08 04:17:51;;;;;;;6.72;5.93;;;;;;;;;;5111799;28;20196;-61
2021/05/08 04:20:18;;;;;;;6.25;5.45;;;;;;;;;;5111742;28;20210;-61
2021/05/08 04:22:45;;;;;;;6.13;5.07;;;;;;;;;;5111624;28;20206;-62
2021/05/08 04:25:13;;;;;;;7.00;6.20;;;;;;;;;;5111695;28;20273;-61
2021/05/08 04:27:39;;;;;;;6.03;5.45;;;;;;;;;;5112193;28;20215;-61
2021/05/08 04:30:07;;;;;;;6.40;5.60;;;;;;;;;;5112247;28;20208;-62
2021/05/08 04:32:33;;;;;;;5.07;4.57;;;;;;;;;;5111172;28;20667;-62
2021/05/08 04:35:00;;;;;;;8.55;6.07;;;;;;;;;;5111086;28;20219;-62
2021/05/08 04:37:27;;;;;;;5.20;4.70;;;;;;;;;;5111388;28;20204;-61
2021/05/08 04:39:55;;;;;;;5.97;5.38;;;;;;;;;;5111137;28;20196;-61
2021/05/08 04:42:23;;;;;;;5.20;4.70;;;;;;;;;;5110970;28;20204;-61
2021/05/08 04:44:50;;;;;;;5.80;4.78;;;;;;;;;;5110832;28;20230;-61
2021/05/08 04:47:20;;;;;;;5.00;4.50;;;;;;;;;;5114857;28;20223;-61
2021/05/08 04:49:47;;;;;;;6.13;5.53;;;;;;;;;;5119990;28;20203;-62
2021/05/08 04:52:13;;;;;;;5.55;5.05;;;;;;;;;;5120309;28;20683;-62
2021/05/08 04:54:40;;;;;;;6.13;4.93;;;;;;;;;;5118743;28;20224;-62
2021/05/08 04:57:07;;;;;;;5.20;4.70;;;;;;;;;;5114832;28;20574;-61
2021/05/08 04:59:35;;;;;;;5.43;4.90;;;;;;;;;;5111256;28;20991;-62
2021/05/08 05:02:02;;;;;;;5.50;5.00;;;;;;;;;;5110965;28;20503;-60
2021/05/08 05:04:29;;;;;;;8.27;5.70;;;;;;;;;;5110763;28;20972;-61
2021/05/08 05:06:56;;;;;;;6.07;5.57;;;;;;;;;;5110723;28;20485;-61
2021/05/08 05:09:27;;;;;;;7.17;5.60;;;;;;;;;;5111222;28;20437;-61
2021/05/08 05:11:53;;;;;;;6.37;5.77;;;;;;;;;;5110613;28;20445;-61
2021/05/08 05:14:20;;;;;;;5.40;4.90;;;;;;;;;;5110327;28;20535;-60
2021/05/08 05:16:48;;;;;;;6.37;5.77;;;;;;;;;;5110002;28;20927;-60
2021/05/08 05:19:15;;;;;;;7.60;6.90;;;;;;;;;;5097645;28;20471;-61
2021/05/08 05:21:41;;;;;;;7.73;7.03;;;;;;;;;;5096572;28;20445;-61
2021/05/08 05:24:08;;;;;;;8.77;7.93;;;;;;;;;;5096218;28;21007;-62
2021/05/08 05:26:35;;;;;;;8.40;7.60;;;;;;;;;;5096062;28;20472;-61
2021/05/08 05:29:02;;;;;;;8.03;7.23;;;;;;;;;;5096420;28;20450;-62
2021/05/08 05:31:29;;;;;;;12.00;8.30;;;;;;;;;;5096301;28;20445;-60
2021/05/08 05:33:56;;;;;;;9.67;8.77;;;;;;;;;;5096223;28;20475;-60
2021/05/08 05:36:23;;;;;;;8.63;7.83;;;;;;;;;;5095957;28;20445;-61
2021/05/08 05:38:50;;;;;;;8.40;7.70;;;;;;;;;;5095897;28;20936;-59
2021/05/08 05:41:17;;;;;;;10.97;9.90;;;;;;;;;;5095873;28;20949;-60
2021/05/08 05:43:43;;;;;;;9.40;8.50;;;;;;;;;;5096614;28;20796;-61
2021/05/08 05:46:10;;;;;;;9.90;8.90;;;;;;;;;;5095926;28;20477;-61
2021/05/08 05:48:37;;;;;;;9.20;8.40;;;;;;;;;;5095643;28;20507;-61
2021/05/08 05:51:05;;;;;;;9.30;8.00;;;;;;;;;;5095955;28;20506;-61
2021/05/08 05:53:31;;;;;;;10.90;8.43;;;;;;;;;;5095913;28;20449;-61
2021/05/08 05:55:58;;;;;;;9.70;8.63;;;;;;;;;;5095733;28;20456;-61
2021/05/08 05:58:25;;;;;;;8.70;7.80;;;;;;;;;;5095742;28;20819;-60
2021/05/08 06:00:52;;;;;;;9.43;8.63;;;;;;;;;;5095363;28;21010;-60
2021/05/08 06:03:19;;;;;;;9.73;8.83;;;;;;;;;;5095508;28;20931;-61
2021/05/08 06:05:45;;;;;;;9.17;8.47;;;;;;;;;;5095108;28;20471;-61
2021/05/08 06:08:13;;;;;;;10.00;9.00;;;;;;;;;;5095818;28;20441;-61
2021/05/08 06:10:40;;;;;;;11.50;8.60;;;;;;;;;;5095595;28;20495;-61
2021/05/08 06:13:06;;;;;;;8.63;7.83;;;;;;;;;;5095508;28;20450;-61
2021/05/08 06:15:33;;;;;;;9.80;8.90;;;;;;;;;;5095359;28;20832;-61
2021/05/08 06:18:00;;;;;;;9.65;8.75;;;;;;;;;;5095498;28;20491;-61
2021/05/08 06:20:27;;;;;;;8.70;7.80;;;;;;;;;;5095699;28;20212;-61
2021/05/08 06:22:54;;;;;;;9.53;8.63;;;;;;;;;;5095409;28;20556;-61
2021/05/08 06:25:21;;;;;;;11.33;8.53;;;;;;;;;;5095149;28;20470;-62
2021/05/08 06:27:48;;;;;;;9.30;8.50;;;;;;;;;;5095475;28;20523;-61
2021/05/08 06:30:15;;;;;;;9.80;8.80;;;;;;;;;;5094337;28;20211;-60
2021/05/08 06:32:42;;;;;;;9.20;8.30;;;;;;;;;;5095021;28;20545;-62
2021/05/08 06:35:09;;;;;;;9.90;9.00;;;;;;;;;;5094686;28;20981;-61
2021/05/08 06:37:36;;;;;;;8.98;7.50;;;;;;;;;;5095128;28;20199;-61
2021/05/08 06:40:02;;;;;;;7.50;6.90;;;;;;;;;;5095163;28;20227;-61
2021/05/08 06:42:31;;;;;;;7.95;7.25;;;;;;;;;;5095148;28;20273;-62
2021/05/08 06:44:58;;;;;;;8.00;7.22;;;;;;;;;;5094664;28;20216;-61
2021/05/08 06:47:24;;;;;;;7.18;6.55;;;;;;;;;;5095888;28;20219;-61
2021/05/08 06:49:51;;;;;;;7.35;6.43;;;;;;;;;;5094882;28;20204;-61
2021/05/08 06:52:18;;;;;;;8.27;6.60;;;;;;;;;;5094814;28;20197;-61
2021/05/08 06:54:45;;;;;;;6.75;6.10;;;;;;;;;;5094463;28;20224;-62
2021/05/08 06:57:11;;;;;;;7.78;6.60;;;;;;;;;;5094525;28;20196;-61
2021/05/08 06:59:39;;;;;;;9.30;6.82;;;;;;;;;;5094763;28;20262;-60
2021/05/08 07:02:06;;;;;;;9.70;7.63;;;;;;;;;;5095053;28;20201;-61
2021/05/08 07:04:33;;;;;;;8.25;7.18;;;;;;;;;;5095479;28;20224;-60
2021/05/08 07:06:59;;;;;;;8.90;7.97;;;;;;;;;;5094662;28;20223;-60
2021/05/08 07:09:26;;;;;;;10.43;8.03;;;;;;;;;;5095000;28;20450;-60
2021/05/08 07:11:53;;;;;;;9.00;8.20;;;;;;;;;;5095872;28;20473;-59
2021/05/08 07:14:20;;;;;;;10.43;9.53;;;;;;;;;;5096573;28;20497;-60
2021/05/08 07:16:48;;;;;;;9.47;8.47;;;;;;;;;;5095470;28;20434;-59
2021/05/08 07:19:14;;;;;;;9.20;8.30;;;;;;;;;;5095485;28;20496;-60
2021/05/08 07:21:41;;;;;;;10.03;8.93;;;;;;;;;;5094739;28;20453;-60
2021/05/08 07:24:08;;;;;;;9.10;8.30;;;;;;;;;;5095067;28;20466;-60
2021/05/08 07:26:35;;;;;;;11.07;8.53;;;;;;;;;;5096253;28;20486;-59
2021/05/08 07:29:02;;;;;;;10.10;8.43;;;;;;;;;;5096743;28;20457;-61
2021/05/08 07:31:29;;;;;;;10.83;8.90;;;;;;;;;;5097188;28;20809;-60
2021/05/08 07:33:57;;;;;;;10.37;9.37;;;;;;;;;;5097410;28;20468;-60
2021/05/08 07:36:23;;;;;;;11.20;10.17;;;;;;;;;;5096371;28;20438;-59
2021/05/08 07:38:50;;;;;;;9.93;9.03;;;;;;;;;;5095914;28;20449;-60
2021/05/08 07:41:17;;;;;;;13.23;10.80;;;;;;;;;;5095261;28;20954;-59
2021/05/08 07:43:44;;;;;;;10.70;9.70;;;;;;;;;;5094906;28;20449;-59
2021/05/08 07:46:10;;;;;;;11.13;10.00;;;;;;;;;;5095379;28;20458;-60
2021/05/08 07:48:37;;;;;;;12.37;11.17;;;;;;;;;;5095463;28;20977;-59
2021/05/08 07:51:05;;;;;;;11.20;9.97;;;;;;;;;;5095360;28;20464;-59
2021/05/08 07:53:32;;;;;;;11.67;10.47;;;;;;;;;;5095374;28;20450;-60
2021/05/08 07:55:59;;;;;;;10.30;9.37;;;;;;;;;;5094651;28;20468;-59
2021/05/08 07:58:26;;;;;;;9.10;8.10;;;;;;;;;;5094654;28;20541;-61
2021/05/08 08:00:53;;;;;;;8.60;7.70;;;;;;;;;;5095853;28;20444;-60
2021/05/08 08:03:19;;;;;;;9.23;8.20;;;;;;;;;;5095285;28;20447;-60
2021/05/08 08:05:46;;;;;;;9.00;7.13;;;;;;;;;;5099600;28;20464;-60
2021/05/08 08:08:14;;;;;;;11.03;8.80;;;;;;;;;;5107502;28;20498;-60
2021/05/08 08:10:40;;;;;;;8.57;7.87;;;;;;;;;;5098641;28;20446;-60
2021/05/08 08:13:07;;;;;;;11.60;8.63;;;;;;;;;;5095561;28;20478;-60
2021/05/08 08:15:34;;;;;;;8.40;7.60;;;;;;;;;;5095239;28;20467;-60
2021/05/08 08:18:01;;;;;;;8.20;7.60;;;;;;;;;;5095409;28;20524;-66
2021/05/08 08:20:27;;;;;;;9.87;8.87;;;;;;;;;;5094873;28;20451;-61
2021/05/08 08:22:54;;;;;;;9.60;8.70;;;;;;;;;;5094330;28;20446;-60
2021/05/08 08:25:22;;;;;;;9.20;8.03;;;;;;;;;;5094666;28;20513;-60
2021/05/08 08:27:48;;;;;;;9.73;8.83;;;;;;;;;;5094946;28;20802;-61
2021/05/08 08:30:15;;;;;;;9.00;8.10;;;;;;;;;;5096076;28;20460;-60
2021/05/08 08:32:42;;;;;;;9.83;8.83;;;;;;;;;;5096705;28;20438;-60
2021/05/08 08:35:10;;;;;;;10.40;9.40;;;;;;;;;;5093369;28;20469;-61
2021/05/08 08:37:37;;;;;;;10.10;9.20;;;;;;;;;;5094058;28;20434;-60
2021/05/08 08:40:04;;;;;;;9.77;8.83;;;;;;;;;;5093622;28;20450;-60
2021/05/08 08:42:31;;;;;;;8.03;7.27;;;;;;;;;;5093630;28;20442;-61
2021/05/08 08:44:58;;;;;;;9.60;8.80;;;;;;;;;;5094376;28;20458;-61
2021/05/08 08:47:29;;;;;;;9.20;8.37;;;;;;;;;;5093782;28;20474;-60
2021/05/08 08:49:58;;;;;;;8.37;7.50;;;;;;;;;;5093814;28;20458;-61
2021/05/08 08:52:25;;;;;;;9.03;7.63;;;;;;;;;;5093676;28;20466;-61
2021/05/08 08:54:51;;;;;;;10.47;7.87;;;;;;;;;;5096792;28;20480;-61
2021/05/08 08:57:23;;;;;;;7.73;7.03;;;;;;;;;;5097166;28;20799;-60
2021/05/08 08:59:52;;;;;;;8.30;7.60;;;;;;;;;;5096759;28;20422;-61
2021/05/08 09:02:19;;;;;;;8.80;7.30;;;;;;;;;;5095624;28;20436;-60
2021/05/08 09:04:45;;;;;;;8.67;7.87;;;;;;;;;;5097284;28;20288;-62
2021/05/08 09:07:13;;;;;;;8.57;7.83;;;;;;;;;;5096743;28;20483;-59
2021/05/08 09:09:40;;;;;;;8.90;8.00;;;;;;;;;;5096671;28;20489;-60
2021/05/08 09:12:12;;;;;;;7.90;7.30;;;;;;;;;;5096946;28;20517;-62
2021/05/08 09:14:39;;;;;;;7.60;6.00;;;;;;;;;;5096748;28;20454;-62
2021/05/08 09:17:11;;;;;;;7.20;5.43;;;;;;;;;;5096636;28;20442;-61
2021/05/08 09:19:39;;;;;;;5.40;4.57;;;;;;;;;;5096501;28;20462;-63
2021/05/08 09:22:24;;;;;;;5.10;4.47;;;;;;;;;;5096923;28;20442;-62
2021/05/08 09:24:55;;;;;;;5.00;4.50;;;;;;;;;;5097244;28;20467;-61
2021/05/08 09:27:33;;;;;;;5.50;5.00;;;;;;;;;;5096711;28;20921;-61
2021/05/08 09:30:20;;;;;;;5.47;4.90;;;;;;;;;;5096401;28;20472;-62
2021/05/08 09:32:49;;;;;;;5.30;4.63;;;;;;;;;;5092453;28;21025;-59
2021/05/08 09:35:16;;;;;;;5.30;4.70;;;;;;;;;;5096842;28;20454;-60
2021/05/08 09:37:43;;;;;;;5.40;4.87;;;;;;;;;;5096699;28;20446;-60
2021/05/08 09:40:17;;;;;;;5.10;4.60;;;;;;;;;;5096483;28;20503;-62
2021/05/08 09:42:44;;;;;;;5.27;4.77;;;;;;;;;;5095985;28;20423;-61
2021/05/08 09:45:11;;;;;;;5.87;5.20;;;;;;;;;;5096113;28;20464;-60
2021/05/08 09:47:38;;;;;;;8.07;4.30;;;;;;;;;;5095705;28;20843;-60
2021/05/08 09:50:06;;;;;;;6.00;5.37;;;;;;;;;;5095821;28;20446;-61
2021/05/08 09:52:46;;;;;;;6.10;4.80;;;;;;;;;;5096006;28;20498;-59
2021/05/08 09:55:14;;;;;;;5.77;4.20;;;;;;;;;;5095805;28;20475;-59
2021/05/08 09:57:40;;;;;;;6.00;4.00;;;;;;;;;;5096025;28;20455;-60
2021/05/08 10:00:22;;;;;;;7.27;4.40;;;;;;;;;;5096079;28;20449;-60
2021/05/08 10:03:00;;;;;;;4.47;3.73;;;;;;;;;;5095583;28;20437;-61
2021/05/08 10:05:28;;;;;;;4.37;3.97;;;;;;;;;;5095791;28;20540;-60
2021/05/08 10:07:55;;;;;;;5.00;4.30;;;;;;;;;;5095258;28;20486;-61
2021/05/08 10:10:22;;;;;;;3.50;3.10;;;;;;;;;;5095770;28;20537;-60
2021/05/08 10:12:48;;;;;;;7.50;3.23;;;;;;;;;;5095942;28;20499;-59
2021/05/08 10:15:15;;;;;;;5.47;3.53;;;;;;;;;;5110487;28;20461;-59
2021/05/08 10:17:44;;;;;;;5.37;3.93;;;;;;;;;;5099283;28;20442;-59
2021/05/08 10:20:13;;;;;;;4.07;3.67;;;;;;;;;;5095321;28;20446;-59
2021/05/08 10:22:42;;;;;;;5.00;4.47;;;;;;;;;;5095338;28;20452;-62
2021/05/08 10:25:09;;;;;;;7.10;4.70;;;;;;;;;;5094985;28;20564;-62
2021/05/08 10:27:36;;;;;;;6.50;4.77;;;;;;;;;;5096748;28;20476;-61
2021/05/08 10:30:04;;;;;;;4.70;4.30;;;;;;;;;;5105208;28;20450;-60
2021/05/08 10:32:31;;;;;;;5.20;4.70;;;;;;;;;;5107295;28;20449;-59
2021/05/08 10:34:59;;;;;;;5.60;4.70;;;;;;;;;;5107596;28;20473;-60
2021/05/08 10:37:26;;;;;;;5.23;4.27;;;;;;;;;;5099624;28;20972;-59
2021/05/08 10:39:56;;;;;;;5.47;3.90;;;;;;;;;;5094951;28;20510;-59
2021/05/08 10:42:33;;;;;;;6.53;4.10;;;;;;;;;;5095862;28;20446;-59
2021/05/08 10:45:00;;;;;;;4.33;3.93;;;;;;;;;;5095672;28;20468;-60
2021/05/08 10:47:47;;;;;;;5.63;4.37;;;;;;;;;;5094799;28;20480;-60
2021/05/08 10:50:22;;;;;;;6.10;4.70;;;;;;;;;;5095309;28;20794;-61
2021/05/08 10:53:05;;;;;;;12.37;9.60;;;;;;;;;;5095587;28;20472;-61
2021/05/08 10:55:42;;;;;;;14.60;11.13;;;;;;;;;;5095295;28;20461;-61
2021/05/08 10:58:28;;;;;;;7.37;4.80;;;;;;;;;;5094497;28;20475;-60
2021/05/08 11:00:56;;;;;;;10.87;9.07;;;;;;;;;;5094851;28;20442;-60
2021/05/08 11:03:23;;;;;;;10.80;7.53;;;;;;;;;;5094660;28;20435;-61
2021/05/08 11:05:51;;;;;;;5.77;5.17;;;;;;;;;;5094531;28;20470;-61
2021/05/08 11:08:36;;;;;;;8.07;5.10;;;;;;;;;;5094841;28;20470;-62
2021/05/08 11:11:04;;;;;;;5.50;5.00;;;;;;;;;;5094938;28;20447;-61
2021/05/08 11:13:45;;;;;;;5.40;4.50;;;;;;;;;;5095232;28;20452;-58
2021/05/08 11:16:13;;;;;;;5.90;5.00;;;;;;;;;;5094148;28;20428;-59
2021/05/08 11:18:41;;;;;;;5.47;4.37;;;;;;;;;;5094181;28;20435;-60
2021/05/08 11:21:28;;;;;;;6.03;4.13;;;;;;;;;;5094452;28;20495;-62
2021/05/08 11:23:57;;;;;;;3.60;3.27;;;;;;;;;;5094521;28;20452;-59
2021/05/08 11:26:35;;;;;;;4.90;4.40;;;;;;;;;;5094106;28;20448;-60
2021/05/08 11:29:03;;;;;;;4.60;4.20;;;;;;;;;;5094794;28;20443;-61
2021/05/08 11:31:30;;;;;;;4.90;4.40;;;;;;;;;;5094333;28;20453;-60
2021/05/08 11:34:10;;;;;;;4.23;3.93;;;;;;;;;;5094123;28;20493;-61
2021/05/08 11:36:44;;;;;;;5.87;4.40;;;;;;;;;;5094785;28;20429;-61
2021/05/08 11:39:11;;;;;;;5.67;4.27;;;;;;;;;;5094431;28;20438;-60
2021/05/08 11:41:39;;;;;;;5.77;5.17;;;;;;;;;;5094597;28;20476;-59
2021/05/08 11:44:06;;;;;;;5.30;4.80;;;;;;;;;;5093990;28;20465;-60
2021/05/08 11:46:34;;;;;;;5.57;4.93;;;;;;;;;;5093701;28;20459;-59
2021/05/08 11:49:01;;;;;;;5.60;5.10;;;;;;;;;;5094532;28;20455;-60
2021/05/08 11:51:28;;;;;;;6.80;5.30;;;;;;;;;;5094159;28;20466;-60
2021/05/08 11:54:08;;;;;;;5.80;5.20;;;;;;;;;;5093337;28;20438;-60
2021/05/08 11:56:35;;;;;;;7.30;5.60;;;;;;;;;;5093720;28;20438;-60
2021/05/08 11:59:02;;;;;;;5.70;4.93;;;;;;;;;;5094157;28;20462;-59
2021/05/08 12:01:30;;;;;;;4.87;4.20;;;;;;;;;;5093348;28;20494;-61
2021/05/08 12:03:58;;;;;;;6.87;4.30;;;;;;;;;;5093919;28;20492;-60
2021/05/08 12:06:25;;;;;;;5.23;4.57;;;;;;;;;;5093073;28;20458;-60
2021/05/08 12:08:52;;;;;;;4.37;3.97;;;;;;;;;;5093451;28;20449;-61
2021/05/08 12:11:19;;;;;;;4.03;3.63;;;;;;;;;;5095112;28;20440;-60
2021/05/08 12:13:46;;;;;;;4.87;4.37;;;;;;;;;;5108676;28;20443;-61
2021/05/08 12:16:14;;;;;;;4.50;4.10;;;;;;;;;;5096554;28;20445;-60
2021/05/08 12:18:41;;;;;;;4.27;3.90;;;;;;;;;;5094750;28;20449;-61
2021/05/08 12:21:08;;;;;;;4.40;4.00;;;;;;;;;;5094036;28;20519;-61
2021/05/08 12:23:36;;;;;;;5.13;4.03;;;;;;;;;;5094245;28;20734;-59
2021/05/08 12:26:10;;;;;;;4.50;4.10;;;;;;;;;;5093837;28;20444;-60
2021/05/08 12:28:37;;;;;;;3.67;3.30;;;;;;;;;;5095963;28;20476;-60
2021/05/08 12:31:22;;;;;;;4.97;3.80;;;;;;;;;;5098030;28;20750;-59
2021/05/08 12:33:49;;;;;;;10.10;3.80;;;;;;;;;;5097593;28;20844;-60
2021/05/08 12:36:16;;;;;;;5.60;3.20;;;;;;;;;;5097350;28;20443;-60
2021/05/08 12:38:43;;;;;;;3.97;3.60;;;;;;;;;;5097322;28;20435;-61
2021/05/08 12:41:23;;;;;;;5.13;3.73;;;;;;;;;;5097159;28;20440;-60
2021/05/08 12:43:50;;;;;;;3.47;3.17;;;;;;;;;;5097208;28;20442;-59
2021/05/08 12:46:17;;;;;;;4.10;3.70;;;;;;;;;;5097270;28;20471;-59
2021/05/08 12:48:44;;;;;;;4.53;3.63;;;;;;;;;;5097071;28;20475;-58
2021/05/08 12:51:27;;;;;;;5.60;3.50;;;;;;;;;;5097051;28;20440;-59
2021/05/08 12:54:12;;;;;;;3.60;3.30;;;;;;;;;;5097042;28;20464;-60
2021/05/08 12:56:41;;;;;;;3.93;3.63;;;;;;;;;;5096937;28;20473;-60
2021/05/08 12:59:08;;;;;;;4.17;3.77;;;;;;;;;;5096710;28;20480;-61
2021/05/08 13:01:36;;;;;;;2.90;2.67;;;;;;;;;;5096350;28;20448;-60
2021/05/08 13:04:04;;;;;;;3.47;2.73;;;;;;;;;;5096288;28;20534;-61
2021/05/08 13:06:31;;;;;;;2.87;2.67;;;;;;;;;;5096416;28;20464;-59
2021/05/08 13:08:58;;;;;;;3.80;3.10;;;;;;;;;;5096736;28;21080;-57
2021/05/08 13:11:35;;;;;;;3.33;2.80;;;;;;;;;;5096946;28;20471;-61
2021/05/08 13:14:20;;;;;;;5.37;3.60;;;;;;;;;;5096252;28;20471;-61
2021/05/08 13:16:49;;;;;;;3.40;2.77;;;;;;;;;;5096479;28;20846;-59
2021/05/08 13:19:17;;;;;;;3.37;3.07;;;;;;;;;;5096389;28;20459;-58
2021/05/08 13:21:44;;;;;;;3.60;2.57;;;;;;;;;;5096445;28;20958;-59
2021/05/08 13:24:11;;;;;;;2.80;2.40;;;;;;;;;;5096745;28;20526;-59
2021/05/08 13:26:38;;;;;;;4.07;2.57;;;;;;;;;;5096653;28;20458;-60
2021/05/08 13:29:05;;;;;;;4.10;3.20;;;;;;;;;;5096787;28;20944;-59
2021/05/08 13:31:31;;;;;;;3.27;2.97;;;;;;;;;;5096282;28;20447;-61
2021/05/08 13:33:58;;;;;;;3.90;2.73;;;;;;;;;;5096252;28;20468;-61
2021/05/08 13:36:26;;;;;;;3.30;2.50;;;;;;;;;;5096541;28;20454;-62
2021/05/08 13:38:53;;;;;;;3.47;2.77;;;;;;;;;;5096562;28;20453;-61
2021/05/08 13:41:20;;;;;;;2.80;2.50;;;;;;;;;;5095951;28;20801;-61
2021/05/08 13:43:47;;;;;;;3.43;2.70;;;;;;;;;;5096169;28;20441;-61
2021/05/08 13:46:14;;;;;;;3.90;3.37;;;;;;;;;;5095882;28;20445;-61
2021/05/08 13:48:40;;;;;;;2.90;2.60;;;;;;;;;;5096489;28;20492;-61
2021/05/08 13:51:07;;;;;;;4.47;3.10;;;;;;;;;;5096404;28;20436;-61
2021/05/08 13:53:35;;;;;;;5.60;2.80;;;;;;;;;;5095880;28;20817;-62
2021/05/08 13:56:02;;;;;;;2.90;2.60;;;;;;;;;;5095970;28;20452;-62
2021/05/08 13:58:29;;;;;;;3.53;2.53;;;;;;;;;;5096916;28;20864;-61
2021/05/08 14:00:55;;;;;;;4.93;2.90;;;;;;;;;;5096352;28;20858;-60
2021/05/08 14:03:22;;;;;;;3.17;2.47;;;;;;;;;;5096035;28;20471;-61
2021/05/08 14:05:49;;;;;;;3.20;2.90;;;;;;;;;;5095846;28;20885;-60
2021/05/08 14:08:16;;;;;;;4.03;2.87;;;;;;;;;;5096511;28;20463;-60
2021/05/08 14:10:43;;;;;;;3.43;2.97;;;;;;;;;;5102078;28;20443;-60
2021/05/08 14:13:10;;;;;;;3.30;2.80;;;;;;;;;;5107113;28;20828;-62
2021/05/08 14:15:37;;;;;;;2.87;2.50;;;;;;;;;;5102500;28;20464;-62
2021/05/08 14:18:04;;;;;;;2.73;2.53;;;;;;;;;;5102458;28;20497;-62
2021/05/08 14:20:30;;;;;;;2.60;2.37;;;;;;;;;;5097001;28;20455;-61
2021/05/08 14:22:57;;;;;;;5.40;4.90;;;;;;;;;;5096565;28;20441;-60
2021/05/08 14:25:24;;;;;;;4.10;3.13;;;;;;;;;;5095856;28;20563;-61
2021/05/08 14:27:52;;;;;;;2.50;2.30;;;;;;;;;;5095688;28;20471;-61
2021/05/08 14:30:18;;;;;;;5.73;2.80;;;;;;;;;;5095395;28;20445;-62
2021/05/08 14:32:46;;;;;;;2.27;1.93;;;;;;;;;;5095167;28;20440;-62
2021/05/08 14:35:13;;;;;;;2.90;2.30;;;;;;;;;;5095150;28;20520;-62
2021/05/08 14:37:40;;;;;;;4.00;3.40;;;;;;;;;;5095074;28;20439;-63
2021/05/08 14:40:08;;;;;;;4.30;3.00;;;;;;;;;;5095175;28;20450;-60
2021/05/08 14:42:34;;;;;;;6.23;4.47;;;;;;;;;;5094792;28;20806;-61
2021/05/08 14:45:02;;;;;;;5.00;3.57;;;;;;;;;;5094828;28;20488;-62
2021/05/08 14:47:29;;;;;;;4.20;2.70;;;;;;;;;;5098029;28;20529;-61